sensor_id;sensor_type;location;lat;lon;timestamp;temperature;humidity
44047;DHT22;29713;-33.888;151.150;2022-12-16T00:01:34;21.90;99.40
44047;DHT22;29713;-33.888;151.150;2022-12-16T00:04:02;21.90;98.80
44047;DHT22;29713;-33.888;151.150;2022-12-16T00:06:31;21.80;98.00
44047;DHT22;29713;-33.888;151.150;2022-12-16T00:08:59;21.70;98.80
44047;DHT22;29713;-33.888;151.150;2022-12-16T00:11:27;21.50;98.10
44047;DHT22;29713;-33.888;151.150;2022-12-16T00:13:57;21.50;99.50
44047;DHT22;29713;-33.888;151.150;2022-12-16T00:16:25;21.60;99.50
44047;DHT22;29713;-33.888;151.150;2022-12-16T00:18:52;21.70;99.50
44047;DHT22;29713;-33.888;151.150;2022-12-16T00:21:20;21.80;98.20
44047;DHT22;29713;-33.888;151.150;2022-12-16T00:23:47;22.00;99.40
44047;DHT22;29713;-33.888;151.150;2022-12-16T00:26:15;22.00;98.20
44047;DHT22;29713;-33.888;151.150;2022-12-16T00:28:42;22.20;98.60
44047;DHT22;29713;-33.888;151.150;2022-12-16T00:31:10;22.40;98.10
44047;DHT22;29713;-33.888;151.150;2022-12-16T00:33:37;22.40;97.90
44047;DHT22;29713;-33.888;151.150;2022-12-16T00:36:06;22.60;98.60
44047;DHT22;29713;-33.888;151.150;2022-12-16T00:38:34;22.90;98.10
44047;DHT22;29713;-33.888;151.150;2022-12-16T00:41:01;22.70;97.80
44047;DHT22;29713;-33.888;151.150;2022-12-16T00:43:28;22.70;97.10
44047;DHT22;29713;-33.888;151.150;2022-12-16T00:45:56;22.60;97.80
44047;DHT22;29713;-33.888;151.150;2022-12-16T00:48:23;22.70;97.20
44047;DHT22;29713;-33.888;151.150;2022-12-16T00:50:53;22.70;97.20
44047;DHT22;29713;-33.888;151.150;2022-12-16T00:53:22;22.70;97.80
44047;DHT22;29713;-33.888;151.150;2022-12-16T00:55:50;22.70;98.00
44047;DHT22;29713;-33.888;151.150;2022-12-16T00:58:17;22.60;98.20
44047;DHT22;29713;-33.888;151.150;2022-12-16T01:00:44;22.40;98.30
44047;DHT22;29713;-33.888;151.150;2022-12-16T01:03:12;22.30;99.00
44047;DHT22;29713;-33.888;151.150;2022-12-16T01:05:39;22.40;98.30
44047;DHT22;29713;-33.888;151.150;2022-12-16T01:08:06;22.40;98.60
44047;DHT22;29713;-33.888;151.150;2022-12-16T01:10:34;22.20;98.50
44047;DHT22;29713;-33.888;151.150;2022-12-16T01:13:01;22.10;98.70
44047;DHT22;29713;-33.888;151.150;2022-12-16T01:15:28;22.10;98.40
44047;DHT22;29713;-33.888;151.150;2022-12-16T01:17:56;22.00;98.50
44047;DHT22;29713;-33.888;151.150;2022-12-16T01:20:23;22.00;98.30
44047;DHT22;29713;-33.888;151.150;2022-12-16T01:22:50;22.00;98.60
44047;DHT22;29713;-33.888;151.150;2022-12-16T01:25:18;22.00;98.60
44047;DHT22;29713;-33.888;151.150;2022-12-16T01:27:45;21.90;98.90
44047;DHT22;29713;-33.888;151.150;2022-12-16T01:30:13;21.90;98.60
44047;DHT22;29713;-33.888;151.150;2022-12-16T01:32:40;22.00;98.60
44047;DHT22;29713;-33.888;151.150;2022-12-16T01:35:08;22.00;98.80
44047;DHT22;29713;-33.888;151.150;2022-12-16T01:37:35;22.10;99.10
44047;DHT22;29713;-33.888;151.150;2022-12-16T01:40:03;22.30;98.90
44047;DHT22;29713;-33.888;151.150;2022-12-16T01:42:30;22.50;98.60
44047;DHT22;29713;-33.888;151.150;2022-12-16T01:45:31;22.50;98.60
44047;DHT22;29713;-33.888;151.150;2022-12-16T01:48:18;22.30;98.70
44047;DHT22;29713;-33.888;151.150;2022-12-16T01:50:47;22.10;99.00
44047;DHT22;29713;-33.888;151.150;2022-12-16T01:53:16;22.40;99.10
44047;DHT22;29713;-33.888;151.150;2022-12-16T01:55:48;22.60;98.80
44047;DHT22;29713;-33.888;151.150;2022-12-16T01:58:20;22.70;98.40
44047;DHT22;29713;-33.888;151.150;2022-12-16T02:00:49;22.80;98.10
44047;DHT22;29713;-33.888;151.150;2022-12-16T02:03:17;22.80;97.70
44047;DHT22;29713;-33.888;151.150;2022-12-16T02:05:45;22.70;98.40
44047;DHT22;29713;-33.888;151.150;2022-12-16T02:08:18;22.80;98.40
44047;DHT22;29713;-33.888;151.150;2022-12-16T02:22:27;23.50;97.50
44047;DHT22;29713;-33.888;151.150;2022-12-16T02:31:28;25.00;96.00
44047;DHT22;29713;-33.888;151.150;2022-12-16T02:36:49;26.10;95.60
44047;DHT22;29713;-33.888;151.150;2022-12-16T02:39:29;26.70;94.30
44047;DHT22;29713;-33.888;151.150;2022-12-16T02:47:31;27.20;94.30
44047;DHT22;29713;-33.888;151.150;2022-12-16T02:49:59;27.60;93.70
44047;DHT22;29713;-33.888;151.150;2022-12-16T02:52:29;27.90;93.10
44047;DHT22;29713;-33.888;151.150;2022-12-16T02:55:00;27.90;92.20
44047;DHT22;29713;-33.888;151.150;2022-12-16T03:05:16;27.80;92.30
44047;DHT22;29713;-33.888;151.150;2022-12-16T03:07:45;28.00;92.00
44047;DHT22;29713;-33.888;151.150;2022-12-16T03:10:17;27.50;92.10
44047;DHT22;29713;-33.888;151.150;2022-12-16T03:12:45;27.30;91.70
44047;DHT22;29713;-33.888;151.150;2022-12-16T03:15:15;27.50;92.70
44047;DHT22;29713;-33.888;151.150;2022-12-16T03:17:46;27.70;92.50
44047;DHT22;29713;-33.888;151.150;2022-12-16T03:23:14;27.90;91.80
44047;DHT22;29713;-33.888;151.150;2022-12-16T03:25:44;27.90;91.10
44047;DHT22;29713;-33.888;151.150;2022-12-16T03:31:04;28.10;91.20
44047;DHT22;29713;-33.888;151.150;2022-12-16T03:33:38;28.40;90.90
44047;DHT22;29713;-33.888;151.150;2022-12-16T03:36:26;28.30;90.30
44047;DHT22;29713;-33.888;151.150;2022-12-16T03:38:56;28.30;90.80
44047;DHT22;29713;-33.888;151.150;2022-12-16T03:41:25;28.10;91.30
44047;DHT22;29713;-33.888;151.150;2022-12-16T03:43:52;27.90;92.00
44047;DHT22;29713;-33.888;151.150;2022-12-16T03:46:20;28.00;91.70
44047;DHT22;29713;-33.888;151.150;2022-12-16T03:48:50;28.00;91.10
44047;DHT22;29713;-33.888;151.150;2022-12-16T03:51:18;27.90;91.50
44047;DHT22;29713;-33.888;151.150;2022-12-16T03:53:46;28.00;91.70
44047;DHT22;29713;-33.888;151.150;2022-12-16T03:56:13;28.30;91.20
44047;DHT22;29713;-33.888;151.150;2022-12-16T03:58:41;28.30;90.50
44047;DHT22;29713;-33.888;151.150;2022-12-16T04:01:09;28.30;90.80
44047;DHT22;29713;-33.888;151.150;2022-12-16T04:03:37;28.10;90.10
44047;DHT22;29713;-33.888;151.150;2022-12-16T04:06:05;28.30;90.80
44047;DHT22;29713;-33.888;151.150;2022-12-16T04:08:32;28.40;90.60
44047;DHT22;29713;-33.888;151.150;2022-12-16T04:11:01;28.10;89.80
44047;DHT22;29713;-33.888;151.150;2022-12-16T04:13:46;28.00;90.20
44047;DHT22;29713;-33.888;151.150;2022-12-16T04:16:31;27.90;90.90
44047;DHT22;29713;-33.888;151.150;2022-12-16T04:19:25;27.70;91.10
44047;DHT22;29713;-33.888;151.150;2022-12-16T04:22:16;27.90;91.10
44047;DHT22;29713;-33.888;151.150;2022-12-16T04:25:08;28.30;91.10
44047;DHT22;29713;-33.888;151.150;2022-12-16T04:27:36;28.40;90.60
44047;DHT22;29713;-33.888;151.150;2022-12-16T04:30:04;28.00;90.40
44047;DHT22;29713;-33.888;151.150;2022-12-16T04:32:52;27.40;90.70
44047;DHT22;29713;-33.888;151.150;2022-12-16T04:35:39;27.20;91.10
44047;DHT22;29713;-33.888;151.150;2022-12-16T04:38:24;27.20;90.80
44047;DHT22;29713;-33.888;151.150;2022-12-16T04:41:10;27.70;90.50
44047;DHT22;29713;-33.888;151.150;2022-12-16T04:43:55;28.10;90.40
44047;DHT22;29713;-33.888;151.150;2022-12-16T04:46:41;28.30;90.30
44047;DHT22;29713;-33.888;151.150;2022-12-16T04:49:27;28.20;88.30
44047;DHT22;29713;-33.888;151.150;2022-12-16T04:52:12;28.20;87.30
44047;DHT22;29713;-33.888;151.150;2022-12-16T04:54:58;28.20;87.40
44047;DHT22;29713;-33.888;151.150;2022-12-16T04:57:54;28.10;88.00
44047;DHT22;29713;-33.888;151.150;2022-12-16T05:00:40;28.20;87.50
44047;DHT22;29713;-33.888;151.150;2022-12-16T05:03:25;28.20;88.30
44047;DHT22;29713;-33.888;151.150;2022-12-16T05:06:12;28.10;88.20
44047;DHT22;29713;-33.888;151.150;2022-12-16T05:08:58;28.20;87.80
44047;DHT22;29713;-33.888;151.150;2022-12-16T05:11:45;28.00;87.20
44047;DHT22;29713;-33.888;151.150;2022-12-16T05:14:31;28.10;89.00
44047;DHT22;29713;-33.888;151.150;2022-12-16T05:17:16;28.20;89.30
44047;DHT22;29713;-33.888;151.150;2022-12-16T05:20:02;28.00;88.80
44047;DHT22;29713;-33.888;151.150;2022-12-16T05:22:48;27.80;87.50
44047;DHT22;29713;-33.888;151.150;2022-12-16T05:25:33;27.70;88.70
44047;DHT22;29713;-33.888;151.150;2022-12-16T05:28:19;27.70;89.20
44047;DHT22;29713;-33.888;151.150;2022-12-16T05:31:04;27.80;90.00
44047;DHT22;29713;-33.888;151.150;2022-12-16T05:33:50;27.50;90.40
44047;DHT22;29713;-33.888;151.150;2022-12-16T05:36:35;27.80;90.40
44047;DHT22;29713;-33.888;151.150;2022-12-16T05:39:20;27.80;90.10
44047;DHT22;29713;-33.888;151.150;2022-12-16T05:42:06;27.50;90.20
44047;DHT22;29713;-33.888;151.150;2022-12-16T05:44:51;27.40;91.00
44047;DHT22;29713;-33.888;151.150;2022-12-16T05:47:36;27.50;90.80
44047;DHT22;29713;-33.888;151.150;2022-12-16T05:50:21;27.40;90.40
44047;DHT22;29713;-33.888;151.150;2022-12-16T05:53:07;27.20;89.50
44047;DHT22;29713;-33.888;151.150;2022-12-16T05:55:53;26.90;88.30
44047;DHT22;29713;-33.888;151.150;2022-12-16T05:58:38;26.70;88.30
44047;DHT22;29713;-33.888;151.150;2022-12-16T06:01:23;26.40;87.20
44047;DHT22;29713;-33.888;151.150;2022-12-16T06:04:09;26.10;86.60
44047;DHT22;29713;-33.888;151.150;2022-12-16T06:06:54;26.10;90.10
44047;DHT22;29713;-33.888;151.150;2022-12-16T06:09:40;26.40;90.70
44047;DHT22;29713;-33.888;151.150;2022-12-16T06:12:25;26.60;90.30
44047;DHT22;29713;-33.888;151.150;2022-12-16T06:15:11;26.70;90.40
44047;DHT22;29713;-33.888;151.150;2022-12-16T06:17:56;26.50;90.80
44047;DHT22;29713;-33.888;151.150;2022-12-16T06:20:41;26.30;91.40
44047;DHT22;29713;-33.888;151.150;2022-12-16T06:23:27;26.40;92.10
44047;DHT22;29713;-33.888;151.150;2022-12-16T06:26:13;26.30;91.50
44047;DHT22;29713;-33.888;151.150;2022-12-16T06:29:12;26.30;91.80
44047;DHT22;29713;-33.888;151.150;2022-12-16T06:31:57;25.70;91.80
44047;DHT22;29713;-33.888;151.150;2022-12-16T06:34:43;25.60;92.30
44047;DHT22;29713;-33.888;151.150;2022-12-16T06:37:28;25.40;92.30
44047;DHT22;29713;-33.888;151.150;2022-12-16T06:40:14;25.00;92.60
44047;DHT22;29713;-33.888;151.150;2022-12-16T06:43:01;24.50;94.00
44047;DHT22;29713;-33.888;151.150;2022-12-16T06:45:46;24.20;93.90
44047;DHT22;29713;-33.888;151.150;2022-12-16T06:48:31;23.90;94.90
44047;DHT22;29713;-33.888;151.150;2022-12-16T06:51:16;23.90;95.40
44047;DHT22;29713;-33.888;151.150;2022-12-16T06:54:02;23.70;94.90
44047;DHT22;29713;-33.888;151.150;2022-12-16T06:56:47;23.50;95.70
44047;DHT22;29713;-33.888;151.150;2022-12-16T06:59:32;23.30;96.00
44047;DHT22;29713;-33.888;151.150;2022-12-16T07:02:17;23.00;96.10
44047;DHT22;29713;-33.888;151.150;2022-12-16T07:05:03;22.70;96.50
44047;DHT22;29713;-33.888;151.150;2022-12-16T07:07:49;22.70;95.90
44047;DHT22;29713;-33.888;151.150;2022-12-16T07:10:35;22.40;96.00
44047;DHT22;29713;-33.888;151.150;2022-12-16T07:13:35;22.20;95.80
44047;DHT22;29713;-33.888;151.150;2022-12-16T07:16:20;22.00;95.70
44047;DHT22;29713;-33.888;151.150;2022-12-16T07:19:06;21.90;96.20
44047;DHT22;29713;-33.888;151.150;2022-12-16T07:21:51;21.80;96.90
44047;DHT22;29713;-33.888;151.150;2022-12-16T07:24:36;21.80;97.90
44047;DHT22;29713;-33.888;151.150;2022-12-16T07:27:22;21.90;98.20
44047;DHT22;29713;-33.888;151.150;2022-12-16T07:30:08;21.70;97.90
44047;DHT22;29713;-33.888;151.150;2022-12-16T07:32:53;21.40;98.50
44047;DHT22;29713;-33.888;151.150;2022-12-16T07:35:41;21.30;99.40
44047;DHT22;29713;-33.888;151.150;2022-12-16T07:38:26;21.20;99.60
44047;DHT22;29713;-33.888;151.150;2022-12-16T07:41:11;21.10;99.60
44047;DHT22;29713;-33.888;151.150;2022-12-16T07:43:57;21.10;99.80
44047;DHT22;29713;-33.888;151.150;2022-12-16T07:46:56;21.00;99.90
44047;DHT22;29713;-33.888;151.150;2022-12-16T07:49:41;20.90;99.90
44047;DHT22;29713;-33.888;151.150;2022-12-16T07:52:27;20.90;99.90
44047;DHT22;29713;-33.888;151.150;2022-12-16T07:55:12;20.90;99.90
44047;DHT22;29713;-33.888;151.150;2022-12-16T07:57:57;20.90;99.90
44047;DHT22;29713;-33.888;151.150;2022-12-16T08:00:43;20.90;99.90
44047;DHT22;29713;-33.888;151.150;2022-12-16T08:03:28;20.80;99.90
44047;DHT22;29713;-33.888;151.150;2022-12-16T08:06:13;20.90;99.90
44047;DHT22;29713;-33.888;151.150;2022-12-16T08:08:58;20.90;99.90
44047;DHT22;29713;-33.888;151.150;2022-12-16T08:11:44;20.90;99.90
44047;DHT22;29713;-33.888;151.150;2022-12-16T08:14:29;20.90;99.90
44047;DHT22;29713;-33.888;151.150;2022-12-16T08:17:15;20.90;99.90
44047;DHT22;29713;-33.888;151.150;2022-12-16T08:20:00;20.80;99.90
44047;DHT22;29713;-33.888;151.150;2022-12-16T08:22:45;20.60;99.90
44047;DHT22;29713;-33.888;151.150;2022-12-16T08:25:31;20.50;99.90
44047;DHT22;29713;-33.888;151.150;2022-12-16T08:28:16;20.40;99.90
44047;DHT22;29713;-33.888;151.150;2022-12-16T08:31:01;20.40;99.90
44047;DHT22;29713;-33.888;151.150;2022-12-16T08:33:46;20.30;99.90
44047;DHT22;29713;-33.888;151.150;2022-12-16T08:36:32;20.10;99.90
44047;DHT22;29713;-33.888;151.150;2022-12-16T08:39:19;20.00;99.90
44047;DHT22;29713;-33.888;151.150;2022-12-16T08:42:04;20.00;99.90
44047;DHT22;29713;-33.888;151.150;2022-12-16T08:44:50;19.90;99.90
44047;DHT22;29713;-33.888;151.150;2022-12-16T08:47:35;19.80;99.90
44047;DHT22;29713;-33.888;151.150;2022-12-16T08:50:21;19.80;99.90
44047;DHT22;29713;-33.888;151.150;2022-12-16T08:53:07;19.80;99.90
44047;DHT22;29713;-33.888;151.150;2022-12-16T08:55:52;19.70;99.90
44047;DHT22;29713;-33.888;151.150;2022-12-16T08:58:37;19.70;99.90
44047;DHT22;29713;-33.888;151.150;2022-12-16T09:01:23;19.60;99.90
44047;DHT22;29713;-33.888;151.150;2022-12-16T09:04:08;19.60;99.90
44047;DHT22;29713;-33.888;151.150;2022-12-16T09:06:53;19.50;99.90
44047;DHT22;29713;-33.888;151.150;2022-12-16T09:09:43;19.50;99.90
44047;DHT22;29713;-33.888;151.150;2022-12-16T09:12:28;19.50;99.90
44047;DHT22;29713;-33.888;151.150;2022-12-16T09:15:14;19.30;99.90
44047;DHT22;29713;-33.888;151.150;2022-12-16T09:17:59;19.20;99.90
44047;DHT22;29713;-33.888;151.150;2022-12-16T09:20:44;19.30;99.90
44047;DHT22;29713;-33.888;151.150;2022-12-16T09:23:30;19.30;99.90
44047;DHT22;29713;-33.888;151.150;2022-12-16T09:26:15;19.30;99.90
44047;DHT22;29713;-33.888;151.150;2022-12-16T09:29:00;19.30;99.90
44047;DHT22;29713;-33.888;151.150;2022-12-16T09:31:45;19.30;99.90
44047;DHT22;29713;-33.888;151.150;2022-12-16T09:34:31;19.20;99.90
44047;DHT22;29713;-33.888;151.150;2022-12-16T09:37:16;19.30;99.90
44047;DHT22;29713;-33.888;151.150;2022-12-16T09:40:02;19.30;99.90
44047;DHT22;29713;-33.888;151.150;2022-12-16T09:42:55;19.30;99.90
44047;DHT22;29713;-33.888;151.150;2022-12-16T09:49:32;19.20;99.90
44047;DHT22;29713;-33.888;151.150;2022-12-16T09:51:56;19.20;99.90
44047;DHT22;29713;-33.888;151.150;2022-12-16T09:54:45;19.10;99.90
44047;DHT22;29713;-33.888;151.150;2022-12-16T09:57:33;19.10;99.90
44047;DHT22;29713;-33.888;151.150;2022-12-16T10:00:24;19.10;99.90
44047;DHT22;29713;-33.888;151.150;2022-12-16T10:03:28;19.10;99.90
44047;DHT22;29713;-33.888;151.150;2022-12-16T10:06:41;19.00;99.90
44047;DHT22;29713;-33.888;151.150;2022-12-16T10:27:46;19.00;99.90
44047;DHT22;29713;-33.888;151.150;2022-12-16T10:30:38;19.00;99.90
44047;DHT22;29713;-33.888;151.150;2022-12-16T10:33:26;18.90;99.90
44047;DHT22;29713;-33.888;151.150;2022-12-16T10:36:19;18.90;99.90
44047;DHT22;29713;-33.888;151.150;2022-12-16T10:39:16;18.90;99.90
44047;DHT22;29713;-33.888;151.150;2022-12-16T10:42:05;18.90;99.90
44047;DHT22;29713;-33.888;151.150;2022-12-16T10:44:56;19.00;99.90
44047;DHT22;29713;-33.888;151.150;2022-12-16T10:47:42;19.00;99.90
44047;DHT22;29713;-33.888;151.150;2022-12-16T10:50:27;18.90;99.90
44047;DHT22;29713;-33.888;151.150;2022-12-16T10:53:18;18.90;99.90
44047;DHT22;29713;-33.888;151.150;2022-12-16T10:56:31;18.90;99.90
44047;DHT22;29713;-33.888;151.150;2022-12-16T10:59:21;18.80;99.90
44047;DHT22;29713;-33.888;151.150;2022-12-16T11:02:18;18.80;99.90
44047;DHT22;29713;-33.888;151.150;2022-12-16T11:05:31;18.80;99.90
44047;DHT22;29713;-33.888;151.150;2022-12-16T11:11:28;18.80;99.90
44047;DHT22;29713;-33.888;151.150;2022-12-16T11:14:17;18.80;99.90
44047;DHT22;29713;-33.888;151.150;2022-12-16T11:17:25;18.70;99.90
44047;DHT22;29713;-33.888;151.150;2022-12-16T11:20:24;18.70;99.90
44047;DHT22;29713;-33.888;151.150;2022-12-16T11:23:21;18.70;99.90
44047;DHT22;29713;-33.888;151.150;2022-12-16T11:26:12;18.60;99.90
44047;DHT22;29713;-33.888;151.150;2022-12-16T11:29:17;18.60;99.90
44047;DHT22;29713;-33.888;151.150;2022-12-16T11:32:15;18.60;99.90
44047;DHT22;29713;-33.888;151.150;2022-12-16T11:35:05;18.50;99.90
44047;DHT22;29713;-33.888;151.150;2022-12-16T11:37:54;18.60;99.90
44047;DHT22;29713;-33.888;151.150;2022-12-16T11:40:41;18.70;99.90
44047;DHT22;29713;-33.888;151.150;2022-12-16T11:43:28;18.60;99.90
44047;DHT22;29713;-33.888;151.150;2022-12-16T11:46:24;18.60;99.90
44047;DHT22;29713;-33.888;151.150;2022-12-16T11:49:30;18.60;99.90
44047;DHT22;29713;-33.888;151.150;2022-12-16T11:52:19;18.60;99.90
44047;DHT22;29713;-33.888;151.150;2022-12-16T11:58:16;18.60;99.90
44047;DHT22;29713;-33.888;151.150;2022-12-16T12:01:27;18.60;99.90
44047;DHT22;29713;-33.888;151.150;2022-12-16T12:04:14;18.50;99.90
44047;DHT22;29713;-33.888;151.150;2022-12-16T12:07:23;18.50;99.90
44047;DHT22;29713;-33.888;151.150;2022-12-16T12:10:22;18.50;99.90
44047;DHT22;29713;-33.888;151.150;2022-12-16T12:19:57;18.30;99.90
44047;DHT22;29713;-33.888;151.150;2022-12-16T12:22:46;18.30;99.90
44047;DHT22;29713;-33.888;151.150;2022-12-16T12:25:48;18.30;99.90
44047;DHT22;29713;-33.888;151.150;2022-12-16T12:31:59;18.20;99.90
44047;DHT22;29713;-33.888;151.150;2022-12-16T12:38:22;18.20;99.90
44047;DHT22;29713;-33.888;151.150;2022-12-16T12:41:17;18.20;99.90
44047;DHT22;29713;-33.888;151.150;2022-12-16T12:47:29;18.20;99.90
44047;DHT22;29713;-33.888;151.150;2022-12-16T12:50:24;18.30;99.90
44047;DHT22;29713;-33.888;151.150;2022-12-16T12:53:25;18.20;99.90
44047;DHT22;29713;-33.888;151.150;2022-12-16T12:59:25;18.20;99.90
44047;DHT22;29713;-33.888;151.150;2022-12-16T13:02:16;18.30;99.90
44047;DHT22;29713;-33.888;151.150;2022-12-16T13:05:04;18.30;99.90
44047;DHT22;29713;-33.888;151.150;2022-12-16T13:07:50;18.30;99.90
44047;DHT22;29713;-33.888;151.150;2022-12-16T13:11:11;18.30;99.90
44047;DHT22;29713;-33.888;151.150;2022-12-16T13:13:57;18.20;99.90
44047;DHT22;29713;-33.888;151.150;2022-12-16T13:22:46;18.30;99.90
44047;DHT22;29713;-33.888;151.150;2022-12-16T13:28:31;18.20;99.90
44047;DHT22;29713;-33.888;151.150;2022-12-16T13:31:18;18.20;99.90
44047;DHT22;29713;-33.888;151.150;2022-12-16T13:34:07;18.20;99.90
44047;DHT22;29713;-33.888;151.150;2022-12-16T13:37:05;18.20;99.90
44047;DHT22;29713;-33.888;151.150;2022-12-16T13:42:53;18.30;99.90
44047;DHT22;29713;-33.888;151.150;2022-12-16T13:48:49;18.30;99.90
44047;DHT22;29713;-33.888;151.150;2022-12-16T13:57:23;18.20;99.90
44047;DHT22;29713;-33.888;151.150;2022-12-16T14:00:17;18.20;99.90
44047;DHT22;29713;-33.888;151.150;2022-12-16T14:03:08;18.20;99.90
44047;DHT22;29713;-33.888;151.150;2022-12-16T14:05:55;18.20;99.90
44047;DHT22;29713;-33.888;151.150;2022-12-16T14:08:40;18.20;99.90
44047;DHT22;29713;-33.888;151.150;2022-12-16T14:14:52;18.10;99.90
44047;DHT22;29713;-33.888;151.150;2022-12-16T14:17:53;18.10;99.90
44047;DHT22;29713;-33.888;151.150;2022-12-16T14:20:55;18.10;99.90
44047;DHT22;29713;-33.888;151.150;2022-12-16T14:24:07;18.10;99.90
44047;DHT22;29713;-33.888;151.150;2022-12-16T14:26:55;18.10;99.90
44047;DHT22;29713;-33.888;151.150;2022-12-16T14:29:42;18.00;99.90
44047;DHT22;29713;-33.888;151.150;2022-12-16T14:32:33;18.10;99.90
44047;DHT22;29713;-33.888;151.150;2022-12-16T14:35:23;18.10;99.90
44047;DHT22;29713;-33.888;151.150;2022-12-16T14:38:29;18.00;99.90
44047;DHT22;29713;-33.888;151.150;2022-12-16T14:44:02;17.90;99.90
44047;DHT22;29713;-33.888;151.150;2022-12-16T14:46:50;18.00;99.90
44047;DHT22;29713;-33.888;151.150;2022-12-16T14:49:36;18.00;99.90
44047;DHT22;29713;-33.888;151.150;2022-12-16T14:52:32;17.90;99.90
44047;DHT22;29713;-33.888;151.150;2022-12-16T14:55:31;17.80;99.90
44047;DHT22;29713;-33.888;151.150;2022-12-16T14:58:22;17.80;99.90
44047;DHT22;29713;-33.888;151.150;2022-12-16T15:01:11;17.80;99.90
44047;DHT22;29713;-33.888;151.150;2022-12-16T15:03:57;17.80;99.90
44047;DHT22;29713;-33.888;151.150;2022-12-16T15:06:49;17.70;99.90
44047;DHT22;29713;-33.888;151.150;2022-12-16T15:09:40;17.70;99.90
44047;DHT22;29713;-33.888;151.150;2022-12-16T15:12:30;17.60;99.90
44047;DHT22;29713;-33.888;151.150;2022-12-16T15:15:28;17.60;99.90
44047;DHT22;29713;-33.888;151.150;2022-12-16T15:18:23;17.70;99.90
44047;DHT22;29713;-33.888;151.150;2022-12-16T15:21:10;17.60;99.90
44047;DHT22;29713;-33.888;151.150;2022-12-16T15:23:58;17.60;99.90
44047;DHT22;29713;-33.888;151.150;2022-12-16T15:26:43;17.50;99.90
44047;DHT22;29713;-33.888;151.150;2022-12-16T15:29:40;17.50;99.90
44047;DHT22;29713;-33.888;151.150;2022-12-16T15:35:24;17.40;99.90
44047;DHT22;29713;-33.888;151.150;2022-12-16T15:40:59;17.40;99.90
44047;DHT22;29713;-33.888;151.150;2022-12-16T15:43:46;17.40;99.90
44047;DHT22;29713;-33.888;151.150;2022-12-16T15:46:33;17.40;99.90
44047;DHT22;29713;-33.888;151.150;2022-12-16T15:49:34;17.40;99.90
44047;DHT22;29713;-33.888;151.150;2022-12-16T15:52:42;17.30;99.90
44047;DHT22;29713;-33.888;151.150;2022-12-16T15:55:36;17.40;99.90
44047;DHT22;29713;-33.888;151.150;2022-12-16T15:58:31;17.30;99.90
44047;DHT22;29713;-33.888;151.150;2022-12-16T16:01:22;17.30;99.90
44047;DHT22;29713;-33.888;151.150;2022-12-16T16:04:26;17.30;99.90
44047;DHT22;29713;-33.888;151.150;2022-12-16T16:07:20;17.30;99.90
44047;DHT22;29713;-33.888;151.150;2022-12-16T16:10:23;17.10;99.90
44047;DHT22;29713;-33.888;151.150;2022-12-16T16:13:09;17.00;99.90
44047;DHT22;29713;-33.888;151.150;2022-12-16T16:15:55;16.90;99.90
44047;DHT22;29713;-33.888;151.150;2022-12-16T16:18:41;16.90;99.90
44047;DHT22;29713;-33.888;151.150;2022-12-16T16:21:27;16.80;99.90
44047;DHT22;29713;-33.888;151.150;2022-12-16T16:24:13;16.80;99.90
44047;DHT22;29713;-33.888;151.150;2022-12-16T16:27:00;16.80;99.90
44047;DHT22;29713;-33.888;151.150;2022-12-16T16:29:46;16.80;99.90
44047;DHT22;29713;-33.888;151.150;2022-12-16T16:32:43;16.90;99.90
44047;DHT22;29713;-33.888;151.150;2022-12-16T16:35:30;16.90;99.90
44047;DHT22;29713;-33.888;151.150;2022-12-16T16:38:16;17.00;99.90
44047;DHT22;29713;-33.888;151.150;2022-12-16T16:41:01;16.90;99.90
44047;DHT22;29713;-33.888;151.150;2022-12-16T16:43:46;17.00;99.90
44047;DHT22;29713;-33.888;151.150;2022-12-16T16:46:39;17.00;99.90
44047;DHT22;29713;-33.888;151.150;2022-12-16T16:49:31;17.00;99.90
44047;DHT22;29713;-33.888;151.150;2022-12-16T16:52:18;17.00;99.90
44047;DHT22;29713;-33.888;151.150;2022-12-16T16:55:05;17.00;99.90
44047;DHT22;29713;-33.888;151.150;2022-12-16T16:57:51;16.90;99.90
44047;DHT22;29713;-33.888;151.150;2022-12-16T17:00:36;16.90;99.90
44047;DHT22;29713;-33.888;151.150;2022-12-16T17:03:21;16.90;99.90
44047;DHT22;29713;-33.888;151.150;2022-12-16T17:06:06;16.90;99.90
44047;DHT22;29713;-33.888;151.150;2022-12-16T17:08:52;16.90;99.90
44047;DHT22;29713;-33.888;151.150;2022-12-16T17:11:37;17.00;99.90
44047;DHT22;29713;-33.888;151.150;2022-12-16T17:14:22;16.90;99.90
44047;DHT22;29713;-33.888;151.150;2022-12-16T17:17:10;16.80;99.90
44047;DHT22;29713;-33.888;151.150;2022-12-16T17:19:56;16.70;99.90
44047;DHT22;29713;-33.888;151.150;2022-12-16T17:22:41;16.60;99.90
44047;DHT22;29713;-33.888;151.150;2022-12-16T17:25:27;16.70;99.90
44047;DHT22;29713;-33.888;151.150;2022-12-16T17:28:12;16.70;99.90
44047;DHT22;29713;-33.888;151.150;2022-12-16T17:30:58;16.70;99.90
44047;DHT22;29713;-33.888;151.150;2022-12-16T17:33:43;16.70;99.90
44047;DHT22;29713;-33.888;151.150;2022-12-16T17:36:28;16.80;99.90
44047;DHT22;29713;-33.888;151.150;2022-12-16T17:39:13;16.70;99.90
44047;DHT22;29713;-33.888;151.150;2022-12-16T17:41:58;16.70;99.90
44047;DHT22;29713;-33.888;151.150;2022-12-16T17:44:46;16.70;99.90
44047;DHT22;29713;-33.888;151.150;2022-12-16T17:47:32;16.70;99.90
44047;DHT22;29713;-33.888;151.150;2022-12-16T17:50:17;16.60;99.90
44047;DHT22;29713;-33.888;151.150;2022-12-16T17:53:02;16.60;99.90
44047;DHT22;29713;-33.888;151.150;2022-12-16T17:55:47;16.50;99.90
44047;DHT22;29713;-33.888;151.150;2022-12-16T17:58:37;16.40;99.90
44047;DHT22;29713;-33.888;151.150;2022-12-16T18:01:23;16.40;99.90
44047;DHT22;29713;-33.888;151.150;2022-12-16T18:04:09;16.30;99.90
44047;DHT22;29713;-33.888;151.150;2022-12-16T18:06:54;16.40;99.90
44047;DHT22;29713;-33.888;151.150;2022-12-16T18:09:40;16.40;99.90
44047;DHT22;29713;-33.888;151.150;2022-12-16T18:12:25;16.40;99.90
44047;DHT22;29713;-33.888;151.150;2022-12-16T18:15:11;16.40;99.90
44047;DHT22;29713;-33.888;151.150;2022-12-16T18:17:56;16.40;99.90
44047;DHT22;29713;-33.888;151.150;2022-12-16T18:20:41;16.40;99.90
44047;DHT22;29713;-33.888;151.150;2022-12-16T18:23:29;16.30;99.90
44047;DHT22;29713;-33.888;151.150;2022-12-16T18:26:15;16.30;99.90
44047;DHT22;29713;-33.888;151.150;2022-12-16T18:29:02;16.20;99.90
44047;DHT22;29713;-33.888;151.150;2022-12-16T18:31:49;16.20;99.90